createdAt,value
2023-04-16T00:01:10.873Z,7.65
2023-04-16T00:03:38.097Z,7.45
2023-04-16T00:06:05.540Z,7.20
2023-04-16T00:08:32.524Z,7.72
2023-04-16T00:10:59.691Z,6.78
2023-04-16T00:13:27.962Z,6.50
2023-04-16T00:15:55.077Z,6.93
2023-04-16T00:18:22.104Z,7.13
2023-04-16T00:20:49.426Z,7.47
2023-04-16T00:23:17.355Z,7.43
2023-04-16T00:25:44.354Z,7.57
2023-04-16T00:28:11.354Z,7.00
2023-04-16T00:30:38.606Z,7.25
2023-04-16T00:33:05.837Z,6.93
2023-04-16T00:35:32.905Z,7.07
2023-04-16T00:37:59.924Z,7.05
2023-04-16T00:40:30.712Z,6.47
2023-04-16T00:42:57.767Z,7.15
2023-04-16T00:45:24.857Z,7.85
2023-04-16T00:47:52.221Z,7.88
2023-04-16T00:50:19.450Z,6.93
2023-04-16T00:52:49.888Z,6.80
2023-04-16T00:55:19.048Z,7.70
2023-04-16T00:57:46.300Z,7.22
2023-04-16T01:00:14.180Z,7.97
2023-04-16T01:02:41.334Z,7.60
2023-04-16T01:05:08.681Z,7.70
2023-04-16T01:07:35.854Z,7.53
2023-04-16T01:10:04.244Z,8.05
2023-04-16T01:12:32.709Z,7.25
2023-04-16T01:15:00.033Z,8.60
2023-04-16T01:17:27.261Z,7.68
2023-04-16T01:19:54.325Z,7.65
2023-04-16T01:22:21.380Z,6.78
2023-04-16T01:24:48.579Z,7.72
2023-04-16T01:27:15.800Z,7.28
2023-04-16T01:29:43.080Z,7.00
2023-04-16T01:32:10.638Z,7.18
2023-04-16T01:34:40.949Z,6.72
2023-04-16T01:37:13.535Z,7.32
2023-04-16T01:39:40.602Z,6.72
2023-04-16T01:42:08.657Z,7.28
2023-04-16T01:44:35.818Z,6.38
2023-04-16T01:47:02.982Z,7.78
2023-04-16T01:49:30.653Z,7.45
2023-04-16T01:51:57.714Z,7.75
2023-04-16T01:54:25.545Z,7.78
2023-04-16T01:56:52.520Z,7.60
2023-04-16T01:59:19.667Z,8.00
2023-04-16T02:01:47.323Z,8.15
2023-04-16T02:04:14.479Z,8.10
2023-04-16T02:06:41.823Z,7.05
2023-04-16T02:09:09.297Z,6.82
2023-04-16T02:11:37.868Z,7.72
2023-04-16T02:14:05.134Z,9.02
2023-04-16T02:16:32.308Z,7.38
2023-04-16T02:19:19.681Z,8.38
2023-04-16T02:21:47.050Z,8.30
2023-04-16T02:24:14.209Z,7.43
2023-04-16T02:26:42.849Z,7.07
2023-04-16T02:29:16.658Z,7.80
2023-04-16T02:31:49.910Z,7.60
2023-04-16T02:34:17.282Z,8.30
2023-04-16T02:36:44.496Z,7.90
2023-04-16T02:39:11.698Z,8.90
2023-04-16T02:41:38.873Z,8.18
2023-04-16T02:44:06.365Z,8.73
2023-04-16T02:46:33.432Z,8.20
2023-04-16T02:49:00.755Z,7.30
2023-04-16T02:51:27.923Z,7.47
2023-04-16T02:53:54.970Z,7.13
2023-04-16T02:56:21.987Z,6.72
2023-04-16T02:58:49.066Z,7.05
2023-04-16T03:01:16.503Z,7.78
2023-04-16T03:03:43.618Z,6.75
2023-04-16T03:06:11.011Z,6.82
2023-04-16T03:08:38.167Z,6.50
2023-04-16T03:11:05.402Z,6.68
2023-04-16T03:13:32.432Z,6.68
2023-04-16T03:15:59.830Z,7.40
2023-04-16T03:18:27.077Z,6.15
2023-04-16T03:20:54.373Z,6.25
2023-04-16T03:23:21.612Z,6.57
2023-04-16T03:25:48.705Z,6.40
2023-04-16T03:28:18.730Z,6.15
2023-04-16T03:30:54.880Z,6.07
2023-04-16T03:33:22.856Z,6.00
2023-04-16T03:35:58.620Z,5.40
2023-04-16T03:38:29.020Z,5.47
2023-04-16T03:40:57.780Z,5.88
2023-04-16T03:43:25.686Z,5.72
2023-04-16T03:45:52.833Z,6.35
2023-04-16T03:48:23.222Z,5.97
2023-04-16T03:50:50.441Z,6.75
2023-04-16T03:53:19.589Z,6.32
2023-04-16T03:55:54.062Z,6.10
2023-04-16T03:58:22.131Z,5.25
2023-04-16T04:00:49.517Z,5.57
2023-04-16T04:03:18.749Z,5.75
2023-04-16T04:05:48.706Z,6.07
2023-04-16T04:08:21.310Z,6.05
2023-04-16T04:10:48.288Z,5.90
2023-04-16T04:13:16.271Z,6.47
2023-04-16T04:15:44.741Z,5.72
2023-04-16T04:18:12.029Z,5.72
2023-04-16T04:20:41.911Z,6.18
2023-04-16T04:23:09.128Z,6.30
2023-04-16T04:25:36.363Z,6.18
2023-04-16T04:28:03.493Z,6.03
2023-04-16T04:30:30.808Z,5.80
2023-04-16T04:32:58.497Z,5.85
2023-04-16T04:35:25.809Z,6.60
2023-04-16T04:37:53.470Z,6.28
2023-04-16T04:40:21.453Z,6.40
2023-04-16T04:42:48.637Z,6.68
2023-04-16T04:45:16.213Z,5.50
2023-04-16T04:47:43.440Z,6.25
2023-04-16T04:50:11.303Z,5.85
2023-04-16T04:52:38.983Z,6.32
2023-04-16T04:55:07.817Z,6.10
2023-04-16T04:57:35.836Z,7.07
2023-04-16T05:00:05.965Z,6.35
2023-04-16T05:02:41.632Z,5.68
2023-04-16T05:05:09.059Z,5.20
2023-04-16T05:07:36.441Z,5.75
2023-04-16T05:10:03.471Z,5.45
2023-04-16T05:12:32.186Z,5.68
2023-04-16T05:14:59.325Z,6.03
2023-04-16T05:17:26.624Z,5.70
2023-04-16T05:19:53.862Z,5.80
2023-04-16T05:22:20.932Z,6.38
2023-04-16T05:24:48.038Z,6.18
2023-04-16T05:27:15.773Z,5.75
2023-04-16T05:29:43.045Z,6.05
2023-04-16T05:32:10.437Z,5.82
2023-04-16T05:34:37.503Z,5.72
2023-04-16T05:37:04.520Z,5.63
2023-04-16T05:39:31.549Z,5.22
2023-04-16T05:41:58.723Z,5.65
2023-04-16T05:44:25.998Z,5.18
2023-04-16T05:46:53.053Z,6.40
2023-04-16T05:49:20.352Z,6.00
2023-04-16T05:51:49.120Z,6.05
2023-04-16T05:54:17.742Z,6.25
2023-04-16T05:56:44.801Z,6.10
2023-04-16T05:59:12.072Z,5.68
2023-04-16T06:01:39.268Z,5.50
2023-04-16T06:04:06.513Z,5.80
2023-04-16T06:06:33.625Z,5.78
2023-04-16T06:09:01.039Z,5.40
2023-04-16T06:11:30.005Z,5.38
2023-04-16T06:13:57.076Z,5.32
2023-04-16T06:16:24.157Z,5.18
2023-04-16T06:18:51.178Z,5.60
2023-04-16T06:21:18.221Z,6.35
2023-04-16T06:23:45.293Z,5.18
2023-04-16T06:26:12.677Z,5.38
2023-04-16T06:28:39.688Z,5.10
2023-04-16T06:31:06.808Z,5.13
2023-04-16T06:33:33.841Z,5.13
2023-04-16T06:36:00.853Z,5.13
2023-04-16T06:38:27.809Z,4.95
2023-04-16T06:40:54.878Z,5.38
2023-04-16T06:43:22.191Z,5.43
2023-04-16T06:45:49.241Z,5.53
2023-04-16T06:48:16.337Z,6.20
2023-04-16T06:50:43.378Z,5.65
2023-04-16T06:53:10.586Z,6.93
2023-04-16T06:55:37.650Z,5.68
2023-04-16T06:58:04.779Z,5.68
2023-04-16T07:00:31.805Z,6.22
2023-04-16T07:03:01.368Z,5.05
2023-04-16T07:05:28.688Z,4.80
2023-04-16T07:07:57.806Z,5.47
2023-04-16T07:10:25.589Z,5.00
2023-04-16T07:12:52.995Z,4.68
2023-04-16T07:15:20.128Z,5.10
2023-04-16T07:17:47.390Z,4.65
2023-04-16T07:20:14.629Z,5.05
2023-04-16T07:22:41.850Z,4.40
2023-04-16T07:25:09.372Z,4.13
2023-04-16T07:27:36.376Z,5.65
2023-04-16T07:30:04.057Z,4.72
2023-04-16T07:32:32.267Z,4.53
2023-04-16T07:34:59.240Z,4.60
2023-04-16T07:37:26.244Z,4.60
2023-04-16T07:39:54.116Z,4.65
2023-04-16T07:42:22.678Z,4.20
2023-04-16T07:44:49.690Z,4.07
2023-04-16T07:47:16.757Z,4.05
2023-04-16T07:49:44.199Z,4.80
2023-04-16T07:52:11.343Z,5.05
2023-04-16T07:54:38.373Z,4.35
2023-04-16T07:57:05.542Z,3.95
2023-04-16T07:59:32.597Z,4.43
2023-04-16T08:01:59.746Z,3.97
2023-04-16T08:04:27.657Z,4.53
2023-04-16T08:06:54.987Z,4.20
2023-04-16T08:09:23.986Z,4.38
2023-04-16T08:11:51.091Z,4.85
2023-04-16T08:14:18.269Z,4.53
2023-04-16T08:16:45.271Z,3.80
2023-04-16T08:19:12.707Z,4.45
2023-04-16T08:21:40.056Z,4.20
2023-04-16T08:24:07.283Z,4.15
2023-04-16T08:26:34.570Z,3.40
2023-04-16T08:29:01.638Z,3.70
2023-04-16T08:31:29.044Z,3.97
2023-04-16T08:33:56.025Z,3.92
2023-04-16T08:36:23.124Z,4.20
2023-04-16T08:38:50.758Z,3.75
2023-04-16T08:41:18.293Z,3.95
2023-04-16T08:43:48.762Z,3.75
2023-04-16T08:46:17.946Z,3.65
2023-04-16T08:48:49.745Z,4.00
2023-04-16T08:51:20.011Z,4.38
2023-04-16T08:53:53.782Z,4.18
2023-04-16T08:56:25.941Z,4.22
2023-04-16T08:58:55.448Z,4.47
2023-04-16T09:01:22.867Z,4.63
2023-04-16T09:03:50.041Z,4.95
2023-04-16T09:06:17.579Z,3.85
2023-04-16T09:08:45.925Z,4.10
2023-04-16T09:11:14.551Z,4.25
2023-04-16T09:13:41.643Z,4.50
2023-04-16T09:16:09.598Z,4.45
2023-04-16T09:18:36.650Z,4.55
2023-04-16T09:21:04.780Z,4.78
2023-04-16T09:23:31.882Z,4.45
2023-04-16T09:25:59.588Z,3.70
2023-04-16T09:28:50.916Z,4.20
2023-04-16T09:31:19.772Z,4.63
2023-04-16T09:34:08.571Z,4.50
2023-04-16T09:36:36.709Z,4.30
2023-04-16T09:39:04.359Z,4.72
2023-04-16T09:41:36.228Z,4.88
2023-04-16T09:44:05.450Z,4.65
2023-04-16T09:46:41.854Z,4.80
2023-04-16T09:49:12.989Z,4.30
2023-04-16T09:51:44.450Z,4.63
2023-04-16T09:54:11.489Z,4.85
2023-04-16T09:56:46.892Z,4.30
2023-04-16T09:59:21.154Z,4.40
2023-04-16T10:02:12.286Z,5.00
2023-04-16T10:04:52.242Z,4.30
2023-04-16T10:07:20.114Z,4.75
2023-04-16T10:09:50.198Z,4.68
2023-04-16T10:12:17.216Z,4.75
2023-04-16T10:14:44.291Z,5.07
2023-04-16T10:17:11.712Z,5.00
2023-04-16T10:19:39.467Z,4.70
2023-04-16T10:22:06.829Z,5.03
2023-04-16T10:24:35.050Z,4.50
2023-04-16T10:27:02.686Z,5.05
2023-04-16T10:29:31.663Z,4.97
2023-04-16T10:31:59.798Z,4.88
2023-04-16T10:34:29.051Z,5.55
2023-04-16T10:36:56.177Z,5.13
2023-04-16T10:39:25.443Z,5.32
2023-04-16T10:42:08.850Z,5.50
2023-04-16T10:44:36.703Z,6.00
2023-04-16T10:47:09.949Z,6.05
2023-04-16T10:49:37.170Z,5.47
2023-04-16T10:52:18.721Z,4.80
2023-04-16T10:54:47.969Z,4.70
2023-04-16T10:57:20.167Z,5.10
2023-04-16T10:59:49.061Z,5.38
2023-04-16T11:02:19.800Z,4.95
2023-04-16T11:04:49.311Z,5.30
2023-04-16T11:07:18.378Z,5.18
2023-04-16T11:10:00.000Z,5.60
2023-04-16T11:12:32.825Z,5.80
2023-04-16T11:15:05.777Z,5.65
2023-04-16T11:17:43.173Z,6.90
2023-04-16T11:20:30.672Z,6.05
2023-04-16T11:25:31.518Z,5.40
2023-04-16T11:27:59.398Z,5.95
2023-04-16T11:30:35.291Z,6.75
2023-04-16T11:33:08.449Z,5.70
2023-04-16T11:35:36.006Z,5.95
2023-04-16T11:38:03.053Z,5.70
2023-04-16T11:40:31.758Z,5.80
2023-04-16T11:43:04.068Z,5.18
2023-04-16T11:45:31.325Z,5.75
2023-04-16T11:47:58.559Z,5.88
2023-04-16T11:50:27.802Z,6.78
2023-04-16T11:52:57.445Z,6.88
2023-04-16T11:55:25.007Z,7.13
2023-04-16T11:57:52.500Z,7.20
2023-04-16T12:00:23.743Z,7.55
2023-04-16T12:02:54.797Z,7.60
2023-04-16T12:05:34.780Z,7.63
2023-04-16T12:08:04.285Z,6.90
2023-04-16T12:10:35.249Z,6.50
2023-04-16T12:13:17.024Z,6.32
2023-04-16T12:15:57.270Z,4.90
2023-04-16T12:18:27.162Z,5.40
2023-04-16T12:20:54.517Z,5.00
2023-04-16T12:23:30.080Z,5.43
2023-04-16T12:26:02.836Z,5.60
2023-04-16T12:28:35.600Z,5.85
2023-04-16T12:31:03.665Z,5.50
2023-04-16T12:33:31.522Z,5.55
2023-04-16T12:35:58.968Z,5.90
2023-04-16T12:38:26.937Z,5.70
2023-04-16T12:40:57.254Z,4.72
2023-04-16T12:43:25.630Z,6.47
2023-04-16T12:45:52.864Z,5.60
2023-04-16T12:48:20.011Z,5.45
2023-04-16T12:50:47.028Z,5.10
2023-04-16T12:53:14.171Z,5.13
2023-04-16T12:55:41.211Z,5.00
2023-04-16T12:58:11.107Z,5.57
2023-04-16T13:00:40.595Z,5.78
2023-04-16T13:03:08.055Z,5.20
2023-04-16T13:05:35.536Z,4.63
2023-04-16T13:08:02.758Z,5.90
2023-04-16T13:10:30.155Z,5.32
2023-04-16T13:12:57.502Z,5.78
2023-04-16T13:15:24.707Z,6.53
2023-04-16T13:17:51.945Z,5.50
2023-04-16T13:20:19.355Z,6.55
2023-04-16T13:22:46.501Z,6.18
2023-04-16T13:25:13.541Z,5.75
2023-04-16T13:27:40.719Z,7.05
2023-04-16T13:30:08.341Z,6.63
2023-04-16T13:32:35.561Z,6.45
2023-04-16T13:35:02.776Z,7.97
2023-04-16T13:37:31.047Z,6.30
2023-04-16T13:39:58.317Z,6.13
2023-04-16T13:42:25.314Z,5.22
2023-04-16T13:44:54.316Z,5.60
2023-04-16T13:47:21.870Z,5.43
2023-04-16T13:49:49.126Z,5.65
2023-04-16T13:52:16.264Z,5.25
2023-04-16T13:54:43.318Z,5.72
2023-04-16T13:57:19.995Z,6.22
2023-04-16T13:59:47.167Z,6.25
2023-04-16T14:02:14.306Z,5.78
2023-04-16T14:04:42.088Z,6.28
2023-04-16T14:07:09.160Z,5.85
2023-04-16T14:09:36.669Z,7.15
2023-04-16T14:12:03.900Z,5.78
2023-04-16T14:14:31.293Z,5.28
2023-04-16T14:16:59.244Z,5.78
2023-04-16T14:19:26.292Z,6.03
2023-04-16T14:21:53.288Z,5.65
2023-04-16T14:24:20.392Z,6.50
2023-04-16T14:26:47.471Z,6.32
2023-04-16T14:29:14.543Z,5.85
2023-04-16T14:31:41.742Z,6.20
2023-04-16T14:34:08.866Z,5.43
2023-04-16T14:36:36.630Z,7.15
2023-04-16T14:39:04.153Z,6.45
2023-04-16T14:41:31.564Z,6.63
2023-04-16T14:43:59.827Z,5.80
2023-04-16T14:46:27.223Z,5.78
2023-04-16T14:48:54.319Z,4.93
2023-04-16T14:51:21.461Z,4.80
2023-04-16T14:53:48.600Z,4.10
2023-04-16T14:56:15.738Z,4.18
2023-04-16T14:58:43.507Z,4.13
2023-04-16T15:01:10.646Z,4.20
2023-04-16T15:03:37.994Z,4.53
2023-04-16T15:08:32.873Z,5.25
2023-04-16T15:10:59.950Z,5.70
2023-04-16T15:13:33.731Z,6.07
2023-04-16T15:16:06.987Z,5.60
2023-04-16T15:18:34.158Z,6.43
2023-04-16T15:21:01.380Z,6.05
2023-04-16T15:23:28.432Z,5.57
2023-04-16T15:25:55.535Z,4.75
2023-04-16T15:28:22.657Z,5.18
2023-04-16T15:30:49.947Z,4.28
2023-04-16T15:33:16.969Z,4.70
2023-04-16T15:35:44.164Z,4.07
2023-04-16T15:38:11.313Z,4.68
2023-04-16T15:40:38.866Z,5.18
2023-04-16T15:43:06.613Z,5.22
2023-04-16T15:45:33.681Z,5.18
2023-04-16T15:48:00.791Z,5.60
2023-04-16T15:50:27.941Z,5.60
2023-04-16T15:52:54.955Z,5.85
2023-04-16T15:55:22.164Z,5.30
2023-04-16T15:57:49.156Z,5.22
2023-04-16T16:00:19.226Z,4.80
2023-04-16T16:02:47.471Z,4.88
2023-04-16T16:05:15.260Z,3.60
2023-04-16T16:07:43.360Z,3.70
2023-04-16T16:10:11.800Z,4.25
2023-04-16T16:12:40.707Z,4.15
2023-04-16T16:15:08.391Z,4.28
2023-04-16T16:17:36.197Z,4.55
2023-04-16T16:20:04.188Z,5.45
2023-04-16T16:22:31.449Z,4.88
2023-04-16T16:24:58.547Z,5.68
2023-04-16T16:27:25.683Z,5.60
2023-04-16T16:29:52.764Z,5.78
2023-04-16T16:32:19.784Z,10.02
2023-04-16T16:34:46.858Z,7.40
2023-04-16T16:37:13.921Z,7.70
2023-04-16T16:39:41.207Z,6.38
2023-04-16T16:42:09.288Z,6.80
2023-04-16T16:44:36.912Z,7.13
2023-04-16T16:47:04.100Z,7.10
2023-04-16T16:49:31.238Z,6.57
2023-04-16T16:51:58.246Z,7.03
2023-04-16T16:54:25.377Z,6.53
2023-04-16T16:56:53.020Z,7.28
2023-04-16T16:59:20.371Z,6.38
2023-04-16T17:01:47.422Z,6.57
2023-04-16T17:04:14.679Z,11.38
2023-04-16T17:06:42.148Z,7.38
2023-04-16T17:09:09.509Z,6.93
2023-04-16T17:11:37.370Z,7.10
2023-04-16T17:14:04.417Z,6.90
2023-04-16T17:16:31.458Z,6.28
2023-04-16T17:18:59.366Z,6.95
2023-04-16T17:21:26.373Z,6.82
2023-04-16T17:23:54.632Z,6.40
2023-04-16T17:26:22.502Z,6.60
2023-04-16T17:28:50.939Z,6.40
2023-04-16T17:31:18.284Z,6.10
2023-04-16T17:33:45.427Z,7.95
2023-04-16T17:36:12.926Z,6.78
2023-04-16T17:38:40.265Z,6.60
2023-04-16T17:41:07.769Z,7.95
2023-04-16T17:43:34.738Z,6.93
2023-04-16T17:46:01.880Z,7.03
2023-04-16T17:48:29.104Z,7.13
2023-04-16T17:50:56.141Z,7.63
2023-04-16T17:53:23.166Z,7.70
2023-04-16T17:55:51.958Z,7.50
2023-04-16T17:58:19.895Z,6.75
2023-04-16T18:00:46.929Z,8.23
2023-04-16T18:03:14.863Z,7.43
2023-04-16T18:05:42.080Z,7.72
2023-04-16T18:08:09.178Z,7.75
2023-04-16T18:10:36.359Z,7.60
2023-04-16T18:13:03.883Z,7.93
2023-04-16T18:15:30.973Z,7.32
2023-04-16T18:17:58.054Z,7.95
2023-04-16T18:20:25.149Z,6.90
2023-04-16T18:22:52.239Z,7.68
2023-04-16T18:25:25.616Z,7.78
2023-04-16T18:28:00.521Z,8.00
2023-04-16T18:30:28.227Z,8.75
2023-04-16T18:33:25.399Z,8.57
2023-04-16T18:35:42.455Z,8.90
2023-04-16T18:38:09.576Z,8.82
2023-04-16T18:40:37.437Z,7.93
2023-04-16T18:43:04.504Z,8.73
2023-04-16T18:48:02.948Z,8.73
2023-04-16T18:50:30.218Z,9.50
2023-04-16T18:52:57.229Z,9.23
2023-04-16T18:55:24.353Z,10.05
2023-04-16T18:57:51.343Z,8.93
2023-04-16T19:00:18.654Z,9.27
2023-04-16T19:02:45.807Z,10.13
2023-04-16T19:05:12.855Z,10.02
2023-04-16T19:07:40.129Z,9.40
2023-04-16T19:10:07.826Z,10.20
2023-04-16T19:12:35.104Z,10.13
2023-04-16T19:15:02.201Z,9.85
2023-04-16T19:17:32.119Z,10.48
2023-04-16T19:19:59.352Z,10.65
2023-04-16T19:22:26.744Z,10.43
2023-04-16T19:24:54.775Z,10.80
2023-04-16T19:27:21.774Z,10.85
2023-04-16T19:29:49.024Z,10.88
2023-04-16T19:32:16.120Z,12.40
2023-04-16T19:34:43.301Z,12.90
2023-04-16T19:37:10.472Z,12.18
2023-04-16T19:39:37.482Z,12.40
2023-04-16T19:42:04.848Z,11.43
2023-04-16T19:44:32.567Z,11.48
2023-04-16T19:46:59.836Z,12.10
2023-04-16T19:49:34.552Z,11.65
2023-04-16T19:52:01.978Z,12.55
2023-04-16T19:54:29.352Z,12.70
2023-04-16T19:56:57.146Z,12.23
2023-04-16T19:59:25.128Z,11.82
2023-04-16T20:01:52.132Z,11.85
2023-04-16T20:04:19.353Z,11.32
2023-04-16T20:06:46.653Z,11.63
2023-04-16T20:09:13.804Z,10.98
2023-04-16T20:11:40.861Z,11.27
2023-04-16T20:14:07.846Z,10.60
2023-04-16T20:16:35.241Z,10.02
2023-04-16T20:19:06.458Z,9.43
2023-04-16T20:21:35.092Z,10.07
2023-04-16T20:24:02.825Z,9.90
2023-04-16T20:26:34.228Z,9.90
2023-04-16T20:29:01.581Z,9.25
2023-04-16T20:31:29.093Z,9.73
2023-04-16T20:33:56.227Z,10.75
2023-04-16T20:36:23.215Z,11.05
2023-04-16T20:38:53.235Z,10.50
2023-04-16T20:41:21.497Z,9.98
2023-04-16T20:43:53.015Z,11.60
2023-04-16T20:46:24.458Z,10.88
2023-04-16T20:48:51.947Z,9.80
2023-04-16T20:51:19.057Z,10.48
2023-04-16T20:53:46.140Z,10.27
2023-04-16T20:56:15.055Z,9.45
2023-04-16T20:58:42.975Z,10.15
2023-04-16T21:01:10.586Z,10.38
2023-04-16T21:03:38.047Z,11.13
2023-04-16T21:06:05.347Z,10.25
2023-04-16T21:08:32.437Z,11.05
2023-04-16T21:10:59.508Z,9.93
2023-04-16T21:13:26.651Z,9.52
2023-04-16T21:15:53.757Z,9.95
2023-04-16T21:18:21.025Z,10.20
2023-04-16T21:20:48.130Z,10.32
2023-04-16T21:23:15.184Z,10.32
2023-04-16T21:25:42.217Z,10.52
2023-04-16T21:28:09.250Z,10.63
2023-04-16T21:30:37.108Z,9.25
2023-04-16T21:33:04.300Z,9.38
2023-04-16T21:35:33.254Z,9.35
2023-04-16T21:38:00.372Z,9.90
2023-04-16T21:40:27.366Z,9.32
2023-04-16T21:42:55.287Z,9.55
2023-04-16T21:45:22.395Z,8.85
2023-04-16T21:47:49.599Z,9.40
2023-04-16T21:50:16.713Z,8.43
2023-04-16T21:52:46.761Z,8.75
2023-04-16T21:55:17.109Z,9.07
2023-04-16T21:57:44.071Z,9.02
2023-04-16T22:00:14.566Z,9.93
2023-04-16T22:02:43.023Z,9.20
2023-04-16T22:05:11.437Z,9.15
2023-04-16T22:07:38.721Z,9.02
2023-04-16T22:10:06.936Z,9.00
2023-04-16T22:12:37.812Z,9.40
2023-04-16T22:15:05.910Z,8.98
2023-04-16T22:17:34.470Z,9.63
2023-04-16T22:20:08.988Z,8.90
2023-04-16T22:22:36.206Z,9.40
2023-04-16T22:25:03.526Z,8.93
2023-04-16T22:27:33.139Z,9.73
2023-04-16T22:30:00.160Z,8.20
2023-04-16T22:32:27.920Z,9.00
2023-04-16T22:34:55.205Z,8.63
2023-04-16T22:37:22.324Z,9.80
2023-04-16T22:39:49.288Z,9.20
2023-04-16T22:42:16.372Z,8.60
2023-04-16T22:44:43.466Z,9.90
2023-04-16T22:47:10.547Z,9.32
2023-04-16T22:49:37.579Z,8.73
2023-04-16T22:52:04.721Z,9.00
2023-04-16T22:54:32.453Z,9.57
2023-04-16T22:57:01.156Z,8.63
2023-04-16T22:59:28.162Z,8.95
2023-04-16T23:01:55.255Z,8.35
2023-04-16T23:04:22.445Z,9.65
2023-04-16T23:06:49.533Z,9.20
2023-04-16T23:09:17.104Z,8.98
2023-04-16T23:11:44.069Z,8.88
2023-04-16T23:14:11.049Z,9.05
2023-04-16T23:16:38.041Z,9.13
2023-04-16T23:19:05.064Z,8.57
2023-04-16T23:21:32.593Z,9.07
2023-04-16T23:23:59.581Z,8.82
2023-04-16T23:26:26.685Z,8.85
2023-04-16T23:28:53.671Z,8.95
2023-04-16T23:31:20.746Z,8.35
2023-04-16T23:33:47.824Z,9.30
2023-04-16T23:36:14.800Z,9.20
2023-04-16T23:38:41.790Z,8.68
2023-04-16T23:41:08.743Z,7.43
2023-04-16T23:43:36.503Z,8.30
2023-04-16T23:46:03.575Z,8.88
2023-04-16T23:48:30.671Z,8.70
2023-04-16T23:50:57.703Z,8.80
2023-04-16T23:53:24.706Z,9.38
2023-04-16T23:55:52.089Z,8.57
2023-04-16T23:58:19.125Z,9.30
